Stella Polaris — PEBD — position and weather

sailwx.info

Track history (hours):
 
Tides and Currents Weather Stations Pressure Air Temp Water Temp Dewpoint Dewpoint Depression Visibility Wind Speed Wind Dir Waves Ship Positions

Stella Polaris

Last reported at 2016-Sep-29 14:29 UTC. Time now 2016-Sep-30 04:58 UTC.
Position N 49°56' W 004°28'.

Length 117 m; draft 6.4 m.

Type: Ship (hazmat cat A). MMSI: 245911000.

Date/timePositionNaut miles runAvg speedWind from/ knotsBaromVisibWave heightAir tempDewpointWater temp
2016-Sep-29 14:29N 49°56' W 004°28'17612.7
2016-Sep-29 00:33N 50°33' E 000°02'3912.9
2016-Sep-28 21:31N 50°49' E 000°58'2412.2
2016-Sep-28 19:33N 51°04' E 001°28'3712.3
2016-Sep-28 16:33N 51°21' E 002°20'1313.4
2016-Sep-28 15:33N 51°23' E 002°41'3712.4
2016-Sep-28 12:34N 51°26' E 003°40'15 3.7
2016-Sep-28 08:32N 51°12' E 003°48'0 0.0
2016-Sep-28 03:29N 51°12' E 003°48'0 0.0
2016-Sep-28 01:23N 51°12' E 003°48'0 0.0
2016-Sep-27 23:24N 51°12' E 003°48'0 0.0
2016-Sep-27 19:17N 51°12' E 003°48'0 0.0
2016-Sep-27 14:32N 51°12' E 003°48'0 0.0
2016-Sep-27 13:28N 51°12' E 003°48'0 0.0
2016-Sep-27 10:31N 51°12' E 003°48'0 0.0
2016-Sep-27 00:33N 51°12' E 003°48'7 1.9
2016-Sep-26 20:33N 51°20' E 003°49'2 2.3
2016-Sep-26 19:33N 51°21' E 003°46'45711.6
2016-Sep-25 04:13N 57°47' E 010°48'4913.3
2016-Sep-25 00:33N 57°08' E 011°40'2813.8
2016-Sep-24 22:33N 56°42' E 011°56'3913.1
2016-Sep-24 19:33N 56°08' E 012°32'1312.9
2016-Sep-24 18:33N 55°57' E 012°43'1312.7
2016-Sep-24 17:33N 55°45' E 012°51'9 8.7
2016-Sep-24 16:33N 55°38' E 013°01'0 0.0
2016-Sep-24 14:33N 55°38' E 013°01'0 0.0
2016-Sep-24 12:33N 55°38' E 013°01'0 0.0
2016-Sep-24 10:22N 55°38' E 013°01'0 0.0
2016-Sep-24 09:31N 55°38' E 013°01'37 6.2
2016-Sep-24 03:33N 56°09' E 012°26'1312.6
2016-Sep-24 02:31N 56°16' E 012°06'2612.7
2016-Sep-24 00:27N 56°42' E 011°53'6313.0
2016-Sep-23 19:33N 57°39' E 011°02'26112.9
2016-Sep-22 23:14N 54°39' E 005°21'20511.0
2016-Sep-22 04:33N 51°22' E 003°45'4 3.5
2016-Sep-22 03:34N 51°19' E 003°49'7 2.3
2016-Sep-22 00:29N 51°12' E 003°48'0 0.0
2016-Sep-21 23:17N 51°12' E 003°48'0 0.0
2016-Sep-21 22:29N 51°12' E 003°48'0 0.0
2016-Sep-21 19:29N 51°12' E 003°48'0 0.0
2016-Sep-21 16:30N 51°12' E 003°48'0 0.0
2016-Sep-21 09:30N 51°12' E 003°48'0 0.0
2016-Sep-21 08:33N 51°12' E 003°48'0 0.0
2016-Sep-21 05:31N 51°12' E 003°48'0 0.0
2016-Sep-21 03:31N 51°12' E 003°48'0 0.0
2016-Sep-21 02:31N 51°12' E 003°48'0 0.0
2016-Sep-20 17:28N 51°12' E 003°48'0 0.0
2016-Sep-20 14:31N 51°12' E 003°48'0 0.0
2016-Sep-20 13:31N 51°12' E 003°48'0 0.0
2016-Sep-20 10:31N 51°12' E 003°48'0 0.0
2016-Sep-20 08:19N 51°12' E 003°48'0 0.0
2016-Sep-20 07:31N 51°12' E 003°48'0 0.0
2016-Sep-20 06:34N 51°12' E 003°48'9 2.2
2016-Sep-20 02:33N 51°21' E 003°47'3511.8
2016-Sep-19 23:33N 51°22' E 002°50'17 4.2
2016-Sep-19 19:33N 51°20' E 002°24'2 1.7
2016-Sep-19 18:33N 51°19' E 002°21'2512.3
2016-Sep-19 16:34N 51°06' E 001°48'  
Track history (hours):
 
Tides and Currents Weather Stations Pressure Air Temp Water Temp Dewpoint Dewpoint Depression Visibility Wind Speed Wind Dir Waves Ship Positions

Stella Polaris

Last reported at 2016-Sep-29 14:29 UTC. Time now 2016-Sep-30 04:58 UTC.
Position N 49°56' W 004°28'.

Length 117 m; draft 6.4 m.

Type: Ship (hazmat cat A). MMSI: 245911000.

Date/timePositionNaut miles runAvg speedWind from/ knotsBaromVisibWave heightAir tempDewpointWater temp
2016-Sep-29 14:29N 49°56' W 004°28'17612.7
2016-Sep-29 00:33N 50°33' E 000°02'3912.9
2016-Sep-28 21:31N 50°49' E 000°58'2412.2
2016-Sep-28 19:33N 51°04' E 001°28'3712.3
2016-Sep-28 16:33N 51°21' E 002°20'1313.4
2016-Sep-28 15:33N 51°23' E 002°41'3712.4
2016-Sep-28 12:34N 51°26' E 003°40'15 3.7
2016-Sep-28 08:32N 51°12' E 003°48'0 0.0
2016-Sep-28 03:29N 51°12' E 003°48'0 0.0
2016-Sep-28 01:23N 51°12' E 003°48'0 0.0
2016-Sep-27 23:24N 51°12' E 003°48'0 0.0
2016-Sep-27 19:17N 51°12' E 003°48'0 0.0
2016-Sep-27 14:32N 51°12' E 003°48'0 0.0
2016-Sep-27 13:28N 51°12' E 003°48'0 0.0
2016-Sep-27 10:31N 51°12' E 003°48'0 0.0
2016-Sep-27 00:33N 51°12' E 003°48'7 1.9
2016-Sep-26 20:33N 51°20' E 003°49'2 2.3
2016-Sep-26 19:33N 51°21' E 003°46'45711.6
2016-Sep-25 04:13N 57°47' E 010°48'4913.3
2016-Sep-25 00:33N 57°08' E 011°40'2813.8
2016-Sep-24 22:33N 56°42' E 011°56'3913.1
2016-Sep-24 19:33N 56°08' E 012°32'1312.9
2016-Sep-24 18:33N 55°57' E 012°43'1312.7
2016-Sep-24 17:33N 55°45' E 012°51'9 8.7
2016-Sep-24 16:33N 55°38' E 013°01'0 0.0
2016-Sep-24 14:33N 55°38' E 013°01'0 0.0
2016-Sep-24 12:33N 55°38' E 013°01'0 0.0
2016-Sep-24 10:22N 55°38' E 013°01'0 0.0
2016-Sep-24 09:31N 55°38' E 013°01'37 6.2
2016-Sep-24 03:33N 56°09' E 012°26'1312.6
2016-Sep-24 02:31N 56°16' E 012°06'2612.7
2016-Sep-24 00:27N 56°42' E 011°53'6313.0
2016-Sep-23 19:33N 57°39' E 011°02'26112.9
2016-Sep-22 23:14N 54°39' E 005°21'20511.0
2016-Sep-22 04:33N 51°22' E 003°45'4 3.5
2016-Sep-22 03:34N 51°19' E 003°49'7 2.3
2016-Sep-22 00:29N 51°12' E 003°48'0 0.0
2016-Sep-21 23:17N 51°12' E 003°48'0 0.0
2016-Sep-21 22:29N 51°12' E 003°48'0 0.0
2016-Sep-21 19:29N 51°12' E 003°48'0 0.0
2016-Sep-21 16:30N 51°12' E 003°48'0 0.0
2016-Sep-21 09:30N 51°12' E 003°48'0 0.0
2016-Sep-21 08:33N 51°12' E 003°48'0 0.0
2016-Sep-21 05:31N 51°12' E 003°48'0 0.0
2016-Sep-21 03:31N 51°12' E 003°48'0 0.0
2016-Sep-21 02:31N 51°12' E 003°48'0 0.0
2016-Sep-20 17:28N 51°12' E 003°48'0 0.0
2016-Sep-20 14:31N 51°12' E 003°48'0 0.0
2016-Sep-20 13:31N 51°12' E 003°48'0 0.0
2016-Sep-20 10:31N 51°12' E 003°48'0 0.0
2016-Sep-20 08:19N 51°12' E 003°48'0 0.0
2016-Sep-20 07:31N 51°12' E 003°48'0 0.0
2016-Sep-20 06:34N 51°12' E 003°48'9 2.2
2016-Sep-20 02:33N 51°21' E 003°47'3511.8
2016-Sep-19 23:33N 51°22' E 002°50'17 4.2
2016-Sep-19 19:33N 51°20' E 002°24'2 1.7
2016-Sep-19 18:33N 51°19' E 002°21'2512.3
2016-Sep-19 16:34N 51°06' E 001°48'  

Dump ship's entire track history